Coleraine, Minnesota
Current Conditions -  °F | °C
As of 4:55 PM on Tuesday 21 Oct 2014 (Local Time) from KGPZ Reporting Station
Clear Clear  
Wind Chill: 50°   Ceiling: Unl
Heat Index: 50°   Visibility: 10mi
Dew Point: 36°   Wind: 12mph
Humidity: 58%   Direction: 130°SE
Pressure: 30.12"   Gusts: 18mph
Location:  47.29°N, 93.43°W
Report Text: KGPZ 212155Z AUTO 13010G16KT 110V170 10SM CLR 10/02 A3012 RMK AO1
Loading
Personal Weather Stations






























Interactive Weather Map
Tropical Storm Tracking
New forecast layout! Learn more

10-Day Weather Forecast

Advertisements
Track Severe Weather on mobile